Dodge City, KS

5:43 AM CDT on August 23, 2014 (GMT -0500)
Summerlon | Change Station
CLOSE
Current Station
Personal Weather Station
Location: Dodge City, KS
Elevation: 2586 ft
Nearby Weather Stations

Elev 2586 ft 37.78 °N, 100.00 °W | Updated 19 seconds ago

Clear
Clear
68.4 °F
Feels Like 68.4 °F
N
5.0
Wind Variable Wind from SSW
Gusts 8.0 mph

Today
High -- | Low -- °F
--% Chance of Precip.
Yesterday
High -- | Low -- °F
Precip. -- in
7:02 AM 8:22 PM
Waning Crescent, 4% visible
Pressure 29.81 in
Visibility 10.0 miles
Clouds Clear
Dew Point 62 °F
Humidity 81%
Rainfall 0.02 in
Snow Depth Not available.
UV 0 out of 12
Pollen 10.70 out of 12
Air Quality Not available.
Flu Activity Not available.
METAR KDDC 230952Z AUTO 19007KT 10SM CLR 19/17 A2990 RMK AO2 SLP094 T01940167

More Conditions Fewer Conditions

Pressure 29.81 in
Visibility 10.0 miles
Clouds Clear
Dew Point 62 °F
Humidity 81%
Rainfall 0.02 in
Snow Depth Not available.
UV 0 out of 12
Pollen 10.70 out of 12
Air Quality Not available.
Flu Activity Not available.
METAR KDDC 230952Z AUTO 19007KT 10SM CLR 19/17 A2990 RMK AO2 SLP094 T01940167

More Conditions Fewer Conditions

10-Day Weather Forecast

Almanac

Astronomy

Aug. 23, 2014 Rise Set
Actual Time 7:02 AM CDT 8:22 PM CDT
Civil Twilight 6:35 AM CDT 8:49 PM CDT
Nautical Twilight 6:02 AM CDT 9:22 PM CDT
Astronomical Twilight 5:27 AM CDT 9:56 PM CDT
Moon 5:20 AM CDT 7:07 PM CDT
Length of Visible Light 14h 14m
Length of Day
13h 19m
Tomorrow will be 2m 14s shorter.
Waning Crescent, 4% of the Moon is Illuminated
Today
Waning Crescent
Aug 25
New
Sep 2
First Quarter
Sep 8
Full
Sep 15
Last Quarter

Today's Extremes

State Highs State Lows

Community

WunderPhotos

Upload Photos

1,746,396 photos uploaded!

WunderBlogs® & News

By Dr. Jeff Masters
Director of Meteorology, Weather Underground
By Kari Strenfel
Meteorologist, Weather Underground
By Christopher C. Burt
Weather Historian, Weather Underground
August 23, 2014
August 23, 2014
August 23, 2014

Nearby

Snow Depth

Station Depth Elevation
No new snow has been reported.

Earthquake Activity

City Distance Mag. Time & Date
Cherokee, Oklahoma 117 miles 3.8 8:25 PM CDT
2014-08-17
Cherokee, Oklahoma 116 miles 2.6 11:50 AM CDT
2014-08-17
Minimum magnitude displayed is 2.5.

Coastal Water Temperatures

Place Temperature
No Stations Reporting

Nearby Weather Stations